sensor_id;sensor_type;location;lat;lon;timestamp;pressure;altitude;pressure_sealevel;temperature;humidity
8653;BME280;4364;52.426;9.424;2023-02-19T00:01:44;100932.53;;;8.03;100.00
8653;BME280;4364;52.426;9.424;2023-02-19T00:04:16;100935.22;;;8.03;100.00
8653;BME280;4364;52.426;9.424;2023-02-19T00:06:44;100928.19;;;8.02;100.00
8653;BME280;4364;52.426;9.424;2023-02-19T00:09:12;100915.56;;;8.13;100.00
8653;BME280;4364;52.426;9.424;2023-02-19T00:11:39;100907.34;;;8.03;100.00
8653;BME280;4364;52.426;9.424;2023-02-19T00:14:06;100910.34;;;8.06;100.00
8653;BME280;4364;52.426;9.424;2023-02-19T00:16:38;100921.38;;;8.00;100.00
8653;BME280;4364;52.426;9.424;2023-02-19T00:19:07;100915.00;;;8.11;100.00
8653;BME280;4364;52.426;9.424;2023-02-19T00:21:36;100908.88;;;8.21;100.00
8653;BME280;4364;52.426;9.424;2023-02-19T00:24:04;100917.56;;;8.23;100.00
8653;BME280;4364;52.426;9.424;2023-02-19T00:26:31;100906.38;;;8.14;100.00
8653;BME280;4364;52.426;9.424;2023-02-19T00:28:59;100893.69;;;8.20;100.00
8653;BME280;4364;52.426;9.424;2023-02-19T00:31:28;100888.31;;;8.25;100.00
8653;BME280;4364;52.426;9.424;2023-02-19T00:34:02;100884.00;;;8.24;100.00
8653;BME280;4364;52.426;9.424;2023-02-19T00:36:31;100869.97;;;8.05;100.00
8653;BME280;4364;52.426;9.424;2023-02-19T00:38:57;100871.69;;;8.11;100.00
8653;BME280;4364;52.426;9.424;2023-02-19T00:41:24;100867.03;;;8.06;100.00
8653;BME280;4364;52.426;9.424;2023-02-19T00:44:02;100860.03;;;8.10;100.00
8653;BME280;4364;52.426;9.424;2023-02-19T00:46:30;100868.63;;;8.02;100.00
8653;BME280;4364;52.426;9.424;2023-02-19T00:48:58;100871.94;;;8.09;100.00
8653;BME280;4364;52.426;9.424;2023-02-19T00:51:26;100868.97;;;8.11;100.00
8653;BME280;4364;52.426;9.424;2023-02-19T00:53:53;100872.22;;;8.13;100.00
8653;BME280;4364;52.426;9.424;2023-02-19T00:56:21;100871.13;;;8.09;100.00
8653;BME280;4364;52.426;9.424;2023-02-19T00:58:48;100864.34;;;8.11;100.00
8653;BME280;4364;52.426;9.424;2023-02-19T01:01:15;100862.63;;;8.00;100.00
8653;BME280;4364;52.426;9.424;2023-02-19T01:03:43;100879.44;;;8.02;100.00
8653;BME280;4364;52.426;9.424;2023-02-19T01:06:12;100893.50;;;7.99;100.00
8653;BME280;4364;52.426;9.424;2023-02-19T01:08:38;100890.03;;;8.04;100.00
8653;BME280;4364;52.426;9.424;2023-02-19T01:11:06;100899.00;;;8.09;100.00
8653;BME280;4364;52.426;9.424;2023-02-19T01:13:34;100895.81;;;8.12;100.00
8653;BME280;4364;52.426;9.424;2023-02-19T01:16:16;100895.59;;;8.19;100.00
8653;BME280;4364;52.426;9.424;2023-02-19T01:18:44;100895.81;;;8.12;100.00
8653;BME280;4364;52.426;9.424;2023-02-19T01:21:19;100879.25;;;8.09;100.00
8653;BME280;4364;52.426;9.424;2023-02-19T01:23:46;100871.84;;;7.99;100.00
8653;BME280;4364;52.426;9.424;2023-02-19T01:26:15;100868.78;;;7.90;100.00
8653;BME280;4364;52.426;9.424;2023-02-19T01:28:44;100874.19;;;7.90;100.00
8653;BME280;4364;52.426;9.424;2023-02-19T01:31:15;100877.16;;;7.89;100.00
8653;BME280;4364;52.426;9.424;2023-02-19T01:33:48;100865.56;;;7.71;100.00
8653;BME280;4364;52.426;9.424;2023-02-19T01:36:15;100872.44;;;7.79;100.00
8653;BME280;4364;52.426;9.424;2023-02-19T01:38:42;100866.47;;;7.77;100.00
8653;BME280;4364;52.426;9.424;2023-02-19T01:41:13;100859.34;;;7.71;100.00
8653;BME280;4364;52.426;9.424;2023-02-19T01:44:04;100847.38;;;7.67;100.00
8653;BME280;4364;52.426;9.424;2023-02-19T01:46:38;100855.19;;;7.63;100.00
8653;BME280;4364;52.426;9.424;2023-02-19T01:49:15;100846.56;;;7.66;100.00
8653;BME280;4364;52.426;9.424;2023-02-19T01:51:47;100846.97;;;7.80;100.00
8653;BME280;4364;52.426;9.424;2023-02-19T01:54:19;100851.28;;;7.76;100.00
8653;BME280;4364;52.426;9.424;2023-02-19T01:56:48;100849.88;;;7.73;100.00
8653;BME280;4364;52.426;9.424;2023-02-19T01:59:17;100845.06;;;7.75;100.00
8653;BME280;4364;52.426;9.424;2023-02-19T02:01:43;100846.41;;;7.78;100.00
8653;BME280;4364;52.426;9.424;2023-02-19T02:04:12;100836.44;;;7.78;100.00
8653;BME280;4364;52.426;9.424;2023-02-19T02:06:47;100847.50;;;7.77;100.00
8653;BME280;4364;52.426;9.424;2023-02-19T02:09:17;100845.38;;;7.79;100.00
8653;BME280;4364;52.426;9.424;2023-02-19T02:12:03;100842.72;;;7.84;100.00
8653;BME280;4364;52.426;9.424;2023-02-19T02:14:33;100848.13;;;7.84;100.00
8653;BME280;4364;52.426;9.424;2023-02-19T02:17:25;100847.31;;;7.84;100.00
8653;BME280;4364;52.426;9.424;2023-02-19T02:22:51;100840.44;;;7.76;100.00
8653;BME280;4364;52.426;9.424;2023-02-19T02:28:49;100842.03;;;7.72;100.00
8653;BME280;4364;52.426;9.424;2023-02-19T02:31:30;100844.06;;;7.87;100.00
8653;BME280;4364;52.426;9.424;2023-02-19T02:34:11;100835.25;;;7.96;100.00
8653;BME280;4364;52.426;9.424;2023-02-19T02:36:43;100838.25;;;8.00;100.00
8653;BME280;4364;52.426;9.424;2023-02-19T02:39:16;100828.00;;;8.02;100.00
8653;BME280;4364;52.426;9.424;2023-02-19T02:41:50;100821.22;;;8.05;100.00
8653;BME280;4364;52.426;9.424;2023-02-19T02:44:42;100831.00;;;8.06;100.00
8653;BME280;4364;52.426;9.424;2023-02-19T02:47:33;100824.50;;;8.07;100.00
8653;BME280;4364;52.426;9.424;2023-02-19T02:50:14;100828.88;;;8.13;100.00
8653;BME280;4364;52.426;9.424;2023-02-19T02:52:46;100833.50;;;8.12;100.00
8653;BME280;4364;52.426;9.424;2023-02-19T02:55:37;100836.00;;;8.19;100.00
8653;BME280;4364;52.426;9.424;2023-02-19T02:58:07;100835.75;;;8.21;100.00
8653;BME280;4364;52.426;9.424;2023-02-19T03:00:36;100838.16;;;8.17;100.00
8653;BME280;4364;52.426;9.424;2023-02-19T03:03:25;100847.91;;;8.18;100.00
8653;BME280;4364;52.426;9.424;2023-02-19T03:05:58;100839.56;;;8.25;100.00
8653;BME280;4364;52.426;9.424;2023-02-19T03:08:31;100840.06;;;8.22;100.00
8653;BME280;4364;52.426;9.424;2023-02-19T03:11:03;100841.97;;;8.21;100.00
8653;BME280;4364;52.426;9.424;2023-02-19T03:13:53;100856.03;;;8.18;100.00
8653;BME280;4364;52.426;9.424;2023-02-19T03:16:43;100877.69;;;7.91;100.00
8653;BME280;4364;52.426;9.424;2023-02-19T03:19:33;100878.94;;;7.34;100.00
8653;BME280;4364;52.426;9.424;2023-02-19T03:22:07;100875.72;;;6.98;100.00
8653;BME280;4364;52.426;9.424;2023-02-19T03:24:41;100882.38;;;6.73;100.00
8653;BME280;4364;52.426;9.424;2023-02-19T03:27:29;100880.09;;;6.48;100.00
8653;BME280;4364;52.426;9.424;2023-02-19T03:30:02;100882.72;;;6.43;100.00
8653;BME280;4364;52.426;9.424;2023-02-19T03:32:43;100881.34;;;6.40;100.00
8653;BME280;4364;52.426;9.424;2023-02-19T03:35:24;100883.03;;;6.29;100.00
8653;BME280;4364;52.426;9.424;2023-02-19T03:38:03;100901.19;;;6.17;100.00
8653;BME280;4364;52.426;9.424;2023-02-19T03:40:43;100907.44;;;6.06;100.00
8653;BME280;4364;52.426;9.424;2023-02-19T03:43:19;100902.44;;;5.98;100.00
8653;BME280;4364;52.426;9.424;2023-02-19T03:45:57;100899.38;;;5.94;100.00
8653;BME280;4364;52.426;9.424;2023-02-19T03:48:35;100908.19;;;5.89;100.00
8653;BME280;4364;52.426;9.424;2023-02-19T03:51:19;100909.38;;;5.93;100.00
8653;BME280;4364;52.426;9.424;2023-02-19T03:54:01;100915.63;;;5.82;100.00
8653;BME280;4364;52.426;9.424;2023-02-19T04:01:55;100934.69;;;5.92;100.00
8653;BME280;4364;52.426;9.424;2023-02-19T04:04:26;100950.00;;;5.87;100.00
8653;BME280;4364;52.426;9.424;2023-02-19T04:06:55;100941.88;;;5.87;100.00
8653;BME280;4364;52.426;9.424;2023-02-19T04:09:39;100952.34;;;5.83;100.00
8653;BME280;4364;52.426;9.424;2023-02-19T04:12:12;100963.84;;;5.79;100.00
8653;BME280;4364;52.426;9.424;2023-02-19T04:14:58;100971.38;;;5.77;100.00
8653;BME280;4364;52.426;9.424;2023-02-19T04:17:41;100975.13;;;5.75;100.00
8653;BME280;4364;52.426;9.424;2023-02-19T04:20:10;100976.16;;;5.74;100.00
8653;BME280;4364;52.426;9.424;2023-02-19T04:22:38;100980.44;;;5.59;100.00
8653;BME280;4364;52.426;9.424;2023-02-19T04:25:06;100978.66;;;5.64;100.00
8653;BME280;4364;52.426;9.424;2023-02-19T04:27:37;100987.81;;;5.63;100.00
8653;BME280;4364;52.426;9.424;2023-02-19T04:30:07;100988.53;;;5.59;100.00
8653;BME280;4364;52.426;9.424;2023-02-19T04:32:34;101009.41;;;5.63;100.00
8653;BME280;4364;52.426;9.424;2023-02-19T04:35:01;101019.72;;;5.54;100.00
8653;BME280;4364;52.426;9.424;2023-02-19T04:37:28;101008.09;;;5.54;100.00
8653;BME280;4364;52.426;9.424;2023-02-19T04:39:55;101001.19;;;5.58;100.00
8653;BME280;4364;52.426;9.424;2023-02-19T04:42:22;101020.44;;;5.50;100.00
8653;BME280;4364;52.426;9.424;2023-02-19T04:44:49;101043.41;;;5.41;100.00
8653;BME280;4364;52.426;9.424;2023-02-19T04:47:16;101055.84;;;5.42;100.00
8653;BME280;4364;52.426;9.424;2023-02-19T04:49:45;101062.63;;;5.44;100.00
8653;BME280;4364;52.426;9.424;2023-02-19T04:52:12;101056.53;;;5.37;100.00
8653;BME280;4364;52.426;9.424;2023-02-19T04:54:38;101051.03;;;5.32;100.00
8653;BME280;4364;52.426;9.424;2023-02-19T04:57:05;101064.63;;;5.25;100.00
8653;BME280;4364;52.426;9.424;2023-02-19T04:59:32;101057.00;;;5.22;100.00
8653;BME280;4364;52.426;9.424;2023-02-19T05:01:58;101054.88;;;5.24;100.00
8653;BME280;4364;52.426;9.424;2023-02-19T05:04:24;101054.53;;;5.20;100.00
8653;BME280;4364;52.426;9.424;2023-02-19T05:06:51;101053.47;;;5.10;100.00
8653;BME280;4364;52.426;9.424;2023-02-19T05:09:18;101068.22;;;5.07;100.00
8653;BME280;4364;52.426;9.424;2023-02-19T05:11:44;101073.72;;;5.12;100.00
8653;BME280;4364;52.426;9.424;2023-02-19T05:14:11;101075.25;;;5.08;100.00
8653;BME280;4364;52.426;9.424;2023-02-19T05:16:38;101083.81;;;5.05;100.00
8653;BME280;4364;52.426;9.424;2023-02-19T05:19:04;101089.28;;;4.98;100.00
8653;BME280;4364;52.426;9.424;2023-02-19T05:21:30;101100.31;;;4.97;100.00
8653;BME280;4364;52.426;9.424;2023-02-19T05:23:57;101108.25;;;4.92;100.00
8653;BME280;4364;52.426;9.424;2023-02-19T05:26:24;101110.28;;;4.96;100.00
8653;BME280;4364;52.426;9.424;2023-02-19T05:28:51;101108.13;;;4.87;100.00
8653;BME280;4364;52.426;9.424;2023-02-19T05:31:19;101115.31;;;4.93;100.00
8653;BME280;4364;52.426;9.424;2023-02-19T05:33:45;101125.47;;;4.91;100.00
8653;BME280;4364;52.426;9.424;2023-02-19T05:36:17;101126.91;;;4.93;100.00
8653;BME280;4364;52.426;9.424;2023-02-19T05:38:44;101130.03;;;4.90;100.00
8653;BME280;4364;52.426;9.424;2023-02-19T05:41:13;101128.19;;;5.03;100.00
8653;BME280;4364;52.426;9.424;2023-02-19T05:43:41;101137.44;;;4.95;100.00
8653;BME280;4364;52.426;9.424;2023-02-19T05:46:10;101140.72;;;4.97;100.00
8653;BME280;4364;52.426;9.424;2023-02-19T05:48:37;101153.13;;;4.86;100.00
8653;BME280;4364;52.426;9.424;2023-02-19T05:51:08;101160.63;;;4.66;100.00
8653;BME280;4364;52.426;9.424;2023-02-19T05:53:36;101169.22;;;4.56;100.00
8653;BME280;4364;52.426;9.424;2023-02-19T05:56:03;101174.75;;;4.42;100.00
8653;BME280;4364;52.426;9.424;2023-02-19T05:58:30;101179.41;;;4.35;100.00
8653;BME280;4364;52.426;9.424;2023-02-19T06:00:56;101187.94;;;4.32;100.00
8653;BME280;4364;52.426;9.424;2023-02-19T06:03:23;101193.69;;;4.36;100.00
8653;BME280;4364;52.426;9.424;2023-02-19T06:05:49;101200.84;;;4.23;100.00
8653;BME280;4364;52.426;9.424;2023-02-19T06:08:16;101208.72;;;4.25;100.00
8653;BME280;4364;52.426;9.424;2023-02-19T06:10:42;101214.88;;;4.07;100.00
8653;BME280;4364;52.426;9.424;2023-02-19T06:13:09;101213.47;;;4.04;100.00
8653;BME280;4364;52.426;9.424;2023-02-19T06:15:36;101221.34;;;4.06;100.00
8653;BME280;4364;52.426;9.424;2023-02-19T06:18:03;101230.50;;;3.98;100.00
8653;BME280;4364;52.426;9.424;2023-02-19T06:20:29;101239.66;;;3.90;100.00
8653;BME280;4364;52.426;9.424;2023-02-19T06:22:55;101246.53;;;3.86;100.00
8653;BME280;4364;52.426;9.424;2023-02-19T06:25:22;101260.47;;;3.77;100.00
8653;BME280;4364;52.426;9.424;2023-02-19T06:27:49;101266.28;;;3.74;100.00
8653;BME280;4364;52.426;9.424;2023-02-19T06:30:15;101255.97;;;3.64;100.00
8653;BME280;4364;52.426;9.424;2023-02-19T06:32:42;101260.16;;;3.60;100.00
8653;BME280;4364;52.426;9.424;2023-02-19T06:35:09;101278.59;;;3.56;100.00
8653;BME280;4364;52.426;9.424;2023-02-19T06:37:35;101274.69;;;3.52;100.00
8653;BME280;4364;52.426;9.424;2023-02-19T06:40:02;101283.16;;;3.49;100.00
8653;BME280;4364;52.426;9.424;2023-02-19T06:42:32;101291.00;;;3.57;100.00
8653;BME280;4364;52.426;9.424;2023-02-19T06:44:58;101305.94;;;3.46;100.00
8653;BME280;4364;52.426;9.424;2023-02-19T06:47:25;101317.53;;;3.47;100.00
8653;BME280;4364;52.426;9.424;2023-02-19T06:49:52;101320.28;;;3.33;100.00
8653;BME280;4364;52.426;9.424;2023-02-19T06:52:18;101328.31;;;3.40;100.00
8653;BME280;4364;52.426;9.424;2023-02-19T06:54:45;101333.06;;;3.45;100.00
8653;BME280;4364;52.426;9.424;2023-02-19T06:57:11;101340.09;;;3.46;100.00
8653;BME280;4364;52.426;9.424;2023-02-19T06:59:37;101348.16;;;3.46;100.00
8653;BME280;4364;52.426;9.424;2023-02-19T07:02:04;101355.78;;;3.49;100.00
8653;BME280;4364;52.426;9.424;2023-02-19T07:04:30;101378.78;;;3.38;100.00
8653;BME280;4364;52.426;9.424;2023-02-19T07:06:57;101386.63;;;3.46;100.00
8653;BME280;4364;52.426;9.424;2023-02-19T07:09:25;101388.03;;;3.49;100.00
8653;BME280;4364;52.426;9.424;2023-02-19T07:11:53;101391.13;;;3.59;100.00
8653;BME280;4364;52.426;9.424;2023-02-19T07:14:20;101401.03;;;3.59;100.00
8653;BME280;4364;52.426;9.424;2023-02-19T07:16:47;101400.44;;;3.57;100.00
8653;BME280;4364;52.426;9.424;2023-02-19T07:19:14;101411.97;;;3.64;100.00
8653;BME280;4364;52.426;9.424;2023-02-19T07:21:41;101418.00;;;3.66;100.00
8653;BME280;4364;52.426;9.424;2023-02-19T07:24:08;101430.19;;;3.62;100.00
8653;BME280;4364;52.426;9.424;2023-02-19T07:26:35;101442.22;;;3.66;100.00
8653;BME280;4364;52.426;9.424;2023-02-19T07:29:01;101440.13;;;3.68;100.00
8653;BME280;4364;52.426;9.424;2023-02-19T07:31:28;101440.91;;;3.75;100.00
8653;BME280;4364;52.426;9.424;2023-02-19T07:33:55;101453.38;;;3.69;100.00
8653;BME280;4364;52.426;9.424;2023-02-19T07:36:22;101452.13;;;3.65;100.00
8653;BME280;4364;52.426;9.424;2023-02-19T07:38:56;101450.88;;;3.68;100.00
8653;BME280;4364;52.426;9.424;2023-02-19T07:41:24;101454.19;;;3.63;100.00
8653;BME280;4364;52.426;9.424;2023-02-19T07:43:54;101467.03;;;3.68;100.00
8653;BME280;4364;52.426;9.424;2023-02-19T07:46:21;101475.50;;;3.71;100.00
8653;BME280;4364;52.426;9.424;2023-02-19T07:48:48;101478.97;;;3.79;100.00
8653;BME280;4364;52.426;9.424;2023-02-19T07:51:16;101480.63;;;3.80;100.00
8653;BME280;4364;52.426;9.424;2023-02-19T07:53:45;101491.00;;;3.76;100.00
8653;BME280;4364;52.426;9.424;2023-02-19T07:56:12;101488.06;;;3.84;100.00
8653;BME280;4364;52.426;9.424;2023-02-19T07:58:39;101500.88;;;3.89;100.00
8653;BME280;4364;52.426;9.424;2023-02-19T08:01:22;101507.53;;;3.86;100.00
8653;BME280;4364;52.426;9.424;2023-02-19T08:04:10;101504.19;;;3.91;100.00
8653;BME280;4364;52.426;9.424;2023-02-19T08:06:37;101500.06;;;3.82;100.00
8653;BME280;4364;52.426;9.424;2023-02-19T08:09:04;101509.13;;;3.94;100.00
8653;BME280;4364;52.426;9.424;2023-02-19T08:11:30;101514.31;;;3.96;100.00
8653;BME280;4364;52.426;9.424;2023-02-19T08:14:16;101525.91;;;3.96;100.00
8653;BME280;4364;52.426;9.424;2023-02-19T08:16:52;101523.03;;;3.91;100.00
8653;BME280;4364;52.426;9.424;2023-02-19T08:19:19;101530.44;;;3.96;100.00
8653;BME280;4364;52.426;9.424;2023-02-19T08:21:46;101528.13;;;4.13;100.00
8653;BME280;4364;52.426;9.424;2023-02-19T08:24:12;101540.59;;;4.00;100.00
8653;BME280;4364;52.426;9.424;2023-02-19T08:26:39;101541.16;;;4.09;100.00
8653;BME280;4364;52.426;9.424;2023-02-19T08:29:05;101546.56;;;4.09;100.00
8653;BME280;4364;52.426;9.424;2023-02-19T08:31:33;101539.13;;;4.11;100.00
8653;BME280;4364;52.426;9.424;2023-02-19T08:34:01;101525.69;;;3.98;100.00
8653;BME280;4364;52.426;9.424;2023-02-19T08:36:27;101518.63;;;4.03;100.00
8653;BME280;4364;52.426;9.424;2023-02-19T08:38:54;101518.59;;;4.10;100.00
8653;BME280;4364;52.426;9.424;2023-02-19T08:41:21;101532.88;;;4.11;100.00
8653;BME280;4364;52.426;9.424;2023-02-19T08:43:47;101542.47;;;4.00;100.00
8653;BME280;4364;52.426;9.424;2023-02-19T08:46:14;101539.75;;;4.00;100.00
8653;BME280;4364;52.426;9.424;2023-02-19T08:48:41;101544.03;;;4.14;100.00
8653;BME280;4364;52.426;9.424;2023-02-19T08:51:09;101543.59;;;4.24;100.00
8653;BME280;4364;52.426;9.424;2023-02-19T08:53:37;101544.00;;;4.21;100.00
8653;BME280;4364;52.426;9.424;2023-02-19T08:56:06;101549.41;;;4.21;100.00
8653;BME280;4364;52.426;9.424;2023-02-19T08:58:32;101548.78;;;4.19;100.00
8653;BME280;4364;52.426;9.424;2023-02-19T09:00:59;101560.56;;;4.31;100.00
8653;BME280;4364;52.426;9.424;2023-02-19T09:03:26;101561.13;;;4.40;100.00
8653;BME280;4364;52.426;9.424;2023-02-19T09:05:52;101574.81;;;4.38;100.00
8653;BME280;4364;52.426;9.424;2023-02-19T09:08:19;101581.63;;;4.41;100.00
8653;BME280;4364;52.426;9.424;2023-02-19T09:10:56;101597.50;;;4.56;100.00
8653;BME280;4364;52.426;9.424;2023-02-19T09:13:23;101595.94;;;4.41;99.50
8653;BME280;4364;52.426;9.424;2023-02-19T09:15:49;101600.38;;;4.61;100.00
8653;BME280;4364;52.426;9.424;2023-02-19T09:18:16;101595.81;;;4.68;98.88
8653;BME280;4364;52.426;9.424;2023-02-19T09:20:42;101593.53;;;4.65;99.66
8653;BME280;4364;52.426;9.424;2023-02-19T09:23:09;101608.22;;;4.69;99.17
8653;BME280;4364;52.426;9.424;2023-02-19T09:25:35;101610.28;;;4.74;98.97
8653;BME280;4364;52.426;9.424;2023-02-19T09:28:02;101603.28;;;4.66;99.52
8653;BME280;4364;52.426;9.424;2023-02-19T09:30:28;101601.88;;;4.57;99.60
8653;BME280;4364;52.426;9.424;2023-02-19T09:32:55;101624.78;;;4.79;98.62
8653;BME280;4364;52.426;9.424;2023-02-19T09:35:21;101622.09;;;4.79;98.96
8653;BME280;4364;52.426;9.424;2023-02-19T09:37:48;101626.63;;;4.79;97.48
8653;BME280;4364;52.426;9.424;2023-02-19T09:40:15;101628.97;;;4.69;97.42
8653;BME280;4364;52.426;9.424;2023-02-19T09:42:48;101629.56;;;4.71;97.36
8653;BME280;4364;52.426;9.424;2023-02-19T09:45:21;101629.31;;;4.79;96.59
8653;BME280;4364;52.426;9.424;2023-02-19T09:47:52;101633.66;;;4.87;97.61
8653;BME280;4364;52.426;9.424;2023-02-19T09:50:22;101636.09;;;4.95;96.92
8653;BME280;4364;52.426;9.424;2023-02-19T09:52:57;101639.81;;;4.94;96.96
8653;BME280;4364;52.426;9.424;2023-02-19T09:55:34;101652.50;;;4.87;96.37
8653;BME280;4364;52.426;9.424;2023-02-19T09:58:07;101666.56;;;4.95;97.66
8653;BME280;4364;52.426;9.424;2023-02-19T10:00:41;101680.38;;;5.06;94.80
8653;BME280;4364;52.426;9.424;2023-02-19T10:03:15;101688.94;;;4.96;94.98
8653;BME280;4364;52.426;9.424;2023-02-19T10:05:46;101685.38;;;5.02;95.61
8653;BME280;4364;52.426;9.424;2023-02-19T10:08:17;101692.28;;;4.91;95.04
8653;BME280;4364;52.426;9.424;2023-02-19T10:10:44;101691.75;;;5.14;95.08
8653;BME280;4364;52.426;9.424;2023-02-19T10:13:32;101702.72;;;5.19;96.80
8653;BME280;4364;52.426;9.424;2023-02-19T10:16:01;101717.16;;;5.32;95.28
8653;BME280;4364;52.426;9.424;2023-02-19T10:18:38;101736.66;;;5.34;95.29
8653;BME280;4364;52.426;9.424;2023-02-19T10:21:11;101733.94;;;5.34;93.72
8653;BME280;4364;52.426;9.424;2023-02-19T10:23:39;101730.91;;;5.24;93.45
8653;BME280;4364;52.426;9.424;2023-02-19T10:26:06;101739.63;;;5.19;93.28
8653;BME280;4364;52.426;9.424;2023-02-19T10:28:34;101755.22;;;5.17;93.14
8653;BME280;4364;52.426;9.424;2023-02-19T10:31:04;101756.84;;;5.25;92.33
8653;BME280;4364;52.426;9.424;2023-02-19T10:33:32;101757.03;;;5.30;93.49
8653;BME280;4364;52.426;9.424;2023-02-19T10:36:02;101755.03;;;5.50;93.14
8653;BME280;4364;52.426;9.424;2023-02-19T10:38:34;101755.19;;;5.55;93.27
8653;BME280;4364;52.426;9.424;2023-02-19T10:41:10;101755.06;;;5.44;91.77
8653;BME280;4364;52.426;9.424;2023-02-19T10:43:42;101765.03;;;5.43;92.56
8653;BME280;4364;52.426;9.424;2023-02-19T10:46:19;101772.00;;;5.57;93.88
8653;BME280;4364;52.426;9.424;2023-02-19T10:48:59;101768.22;;;5.65;94.25
8653;BME280;4364;52.426;9.424;2023-02-19T10:51:45;101759.81;;;5.80;92.31
8653;BME280;4364;52.426;9.424;2023-02-19T10:54:39;101759.91;;;5.67;90.73
8653;BME280;4364;52.426;9.424;2023-02-19T10:57:32;101752.06;;;5.59;92.39
8653;BME280;4364;52.426;9.424;2023-02-19T11:00:02;101747.06;;;5.62;91.59
8653;BME280;4364;52.426;9.424;2023-02-19T11:02:44;101736.09;;;5.57;89.11
8653;BME280;4364;52.426;9.424;2023-02-19T11:07:53;101753.00;;;5.71;89.81
8653;BME280;4364;52.426;9.424;2023-02-19T11:10:26;101757.88;;;5.87;90.20
8653;BME280;4364;52.426;9.424;2023-02-19T11:13:01;101759.97;;;5.85;89.89
8653;BME280;4364;52.426;9.424;2023-02-19T11:15:29;101782.38;;;6.18;87.93
8653;BME280;4364;52.426;9.424;2023-02-19T11:17:59;101780.97;;;6.15;87.85
8653;BME280;4364;52.426;9.424;2023-02-19T11:20:52;101791.75;;;6.15;84.38
8653;BME280;4364;52.426;9.424;2023-02-19T11:23:31;101790.00;;;5.96;84.49
8653;BME280;4364;52.426;9.424;2023-02-19T11:26:02;101790.16;;;6.07;86.65
8653;BME280;4364;52.426;9.424;2023-02-19T11:28:38;101783.34;;;6.05;84.94
8653;BME280;4364;52.426;9.424;2023-02-19T11:31:14;101787.97;;;5.91;84.55
8653;BME280;4364;52.426;9.424;2023-02-19T11:34:02;101786.09;;;5.91;85.15
8653;BME280;4364;52.426;9.424;2023-02-19T11:36:32;101778.38;;;6.02;85.69
8653;BME280;4364;52.426;9.424;2023-02-19T11:39:26;101793.06;;;6.31;85.15
8653;BME280;4364;52.426;9.424;2023-02-19T11:42:17;101791.50;;;6.23;85.04
8653;BME280;4364;52.426;9.424;2023-02-19T11:48:02;101797.09;;;6.47;83.44
8653;BME280;4364;52.426;9.424;2023-02-19T11:50:44;101796.97;;;6.60;81.47
8653;BME280;4364;52.426;9.424;2023-02-19T11:59:00;101779.34;;;6.33;80.76
8653;BME280;4364;52.426;9.424;2023-02-19T12:07:07;101777.41;;;6.40;79.64
8653;BME280;4364;52.426;9.424;2023-02-19T12:09:57;101781.75;;;6.41;79.68
8653;BME280;4364;52.426;9.424;2023-02-19T12:12:47;101784.09;;;6.56;75.69
8653;BME280;4364;52.426;9.424;2023-02-19T12:15:25;101782.09;;;6.70;74.22
8653;BME280;4364;52.426;9.424;2023-02-19T12:18:57;101781.03;;;6.71;75.29
8653;BME280;4364;52.426;9.424;2023-02-19T12:35:34;101803.81;;;7.18;75.65
8653;BME280;4364;52.426;9.424;2023-02-19T12:38:20;101800.22;;;7.36;75.55
8653;BME280;4364;52.426;9.424;2023-02-19T12:41:02;101795.25;;;7.52;75.65
8653;BME280;4364;52.426;9.424;2023-02-19T12:43:36;101800.69;;;7.33;70.53
8653;BME280;4364;52.426;9.424;2023-02-19T12:46:11;101798.97;;;7.39;72.10
8653;BME280;4364;52.426;9.424;2023-02-19T12:51:55;101801.88;;;7.37;70.92
8653;BME280;4364;52.426;9.424;2023-02-19T12:54:40;101797.97;;;7.52;72.07
8653;BME280;4364;52.426;9.424;2023-02-19T12:57:20;101801.25;;;7.54;70.71
8653;BME280;4364;52.426;9.424;2023-02-19T13:00:57;101807.94;;;7.51;69.49
8653;BME280;4364;52.426;9.424;2023-02-19T13:03:20;101802.66;;;7.56;67.73
8653;BME280;4364;52.426;9.424;2023-02-19T13:08:57;101817.59;;;7.47;69.27
8653;BME280;4364;52.426;9.424;2023-02-19T13:11:40;101811.91;;;7.67;68.99
8653;BME280;4364;52.426;9.424;2023-02-19T13:14:13;101819.78;;;7.69;70.14
8653;BME280;4364;52.426;9.424;2023-02-19T13:16:45;101820.50;;;7.76;67.74
8653;BME280;4364;52.426;9.424;2023-02-19T13:19:14;101828.06;;;7.74;66.89
8653;BME280;4364;52.426;9.424;2023-02-19T13:21:41;101828.63;;;7.76;66.53
8653;BME280;4364;52.426;9.424;2023-02-19T13:24:38;101831.03;;;7.54;67.10
8653;BME280;4364;52.426;9.424;2023-02-19T13:27:25;101829.50;;;7.58;66.21
8653;BME280;4364;52.426;9.424;2023-02-19T13:30:09;101820.94;;;7.61;65.91
8653;BME280;4364;52.426;9.424;2023-02-19T13:32:59;101809.06;;;7.62;64.61
8653;BME280;4364;52.426;9.424;2023-02-19T13:36:21;101807.34;;;7.49;65.45
8653;BME280;4364;52.426;9.424;2023-02-19T13:38:42;101799.13;;;7.56;64.18
8653;BME280;4364;52.426;9.424;2023-02-19T13:41:26;101801.25;;;7.54;63.18
8653;BME280;4364;52.426;9.424;2023-02-19T13:44:06;101794.50;;;7.45;64.01
8653;BME280;4364;52.426;9.424;2023-02-19T13:46:39;101803.66;;;7.62;63.74
8653;BME280;4364;52.426;9.424;2023-02-19T13:52:01;101788.00;;;7.64;64.92
8653;BME280;4364;52.426;9.424;2023-02-19T13:54:33;101795.38;;;7.57;64.08
8653;BME280;4364;52.426;9.424;2023-02-19T13:59:49;101801.44;;;7.71;63.09
8653;BME280;4364;52.426;9.424;2023-02-19T14:07:32;101815.41;;;7.68;63.74
8653;BME280;4364;52.426;9.424;2023-02-19T14:10:00;101816.91;;;7.52;63.81
8653;BME280;4364;52.426;9.424;2023-02-19T14:12:35;101816.91;;;7.52;63.65
8653;BME280;4364;52.426;9.424;2023-02-19T14:15:41;101829.47;;;7.46;63.46
8653;BME280;4364;52.426;9.424;2023-02-19T14:18:44;101825.84;;;7.52;64.62
8653;BME280;4364;52.426;9.424;2023-02-19T14:21:20;101830.56;;;7.57;65.15
8653;BME280;4364;52.426;9.424;2023-02-19T14:23:54;101830.19;;;7.53;64.70
8653;BME280;4364;52.426;9.424;2023-02-19T14:26:24;101836.63;;;7.40;64.88
8653;BME280;4364;52.426;9.424;2023-02-19T14:28:52;101832.97;;;7.47;65.96
8653;BME280;4364;52.426;9.424;2023-02-19T14:31:26;101834.38;;;7.37;66.22
8653;BME280;4364;52.426;9.424;2023-02-19T14:34:02;101828.41;;;7.47;67.36
8653;BME280;4364;52.426;9.424;2023-02-19T14:36:31;101838.47;;;7.40;68.11
8653;BME280;4364;52.426;9.424;2023-02-19T14:39:02;101839.94;;;7.24;67.27
8653;BME280;4364;52.426;9.424;2023-02-19T14:41:32;101848.88;;;7.24;66.82
8653;BME280;4364;52.426;9.424;2023-02-19T14:44:00;101858.94;;;7.17;67.16